Time;durP1;ratioP1;P1;durP2;ratioP2;P2;SDS_P1;SDS_P2;PMS_P1;PMS_P2;Temp;Humidity;BMP_temperature;BMP_pressure;BME280_temperature;BME280_humidity;BME280_pressure;Samples;Min_cycle;Max_cycle;Signal;HPM_P1;HPM_P2
2023/05/18 00:01:02;;;;;;;6.07;3.88;;;;;;;;;;5058547;28;20082;-77
2023/05/18 00:03:32;;;;;;;7.20;3.40;;;;;;;;;;5061530;28;20024;-78
2023/05/18 00:06:03;;;;;;;6.53;3.92;;;;;;;;;;5062338;28;20059;-78
2023/05/18 00:08:30;;;;;;;5.43;3.53;;;;;;;;;;5065371;28;20063;-78
2023/05/18 00:10:56;;;;;;;9.27;3.90;;;;;;;;;;5060211;28;20051;-78
2023/05/18 00:13:22;;;;;;;6.47;4.03;;;;;;;;;;5063579;28;20039;-78
2023/05/18 00:15:49;;;;;;;8.13;3.65;;;;;;;;;;5056258;28;20422;-78
2023/05/18 00:18:15;;;;;;;4.07;3.40;;;;;;;;;;5074376;28;20024;-78
2023/05/18 00:20:42;;;;;;;4.80;3.60;;;;;;;;;;5065130;28;20029;-77
2023/05/18 00:23:15;;;;;;;4.75;3.05;;;;;;;;;;5055548;28;20048;-77
2023/05/18 00:25:41;;;;;;;7.60;3.72;;;;;;;;;;5065948;28;20115;-78
2023/05/18 00:28:07;;;;;;;8.80;4.53;;;;;;;;;;5064965;28;20169;-78
2023/05/18 00:30:33;;;;;;;6.25;3.28;;;;;;;;;;5068958;28;20009;-77
2023/05/18 00:33:00;;;;;;;6.25;3.83;;;;;;;;;;5070307;28;20025;-78
2023/05/18 00:35:26;;;;;;;8.40;4.30;;;;;;;;;;5067013;28;20036;-78
2023/05/18 00:37:52;;;;;;;9.13;4.03;;;;;;;;;;5071717;28;20024;-78
2023/05/18 00:40:18;;;;;;;4.97;4.05;;;;;;;;;;5073181;28;20107;-78
2023/05/18 00:42:44;;;;;;;5.32;3.75;;;;;;;;;;5074507;28;20028;-78
2023/05/18 00:45:11;;;;;;;7.70;3.60;;;;;;;;;;5070495;28;20048;-78
2023/05/18 00:47:37;;;;;;;4.78;3.72;;;;;;;;;;5065954;28;20029;-77
2023/05/18 00:50:03;;;;;;;7.05;3.70;;;;;;;;;;5067052;28;20029;-78
2023/05/18 00:52:31;;;;;;;5.60;3.60;;;;;;;;;;5065274;28;20025;-78
2023/05/18 00:55:02;;;;;;;4.38;3.00;;;;;;;;;;5069078;28;20040;-78
2023/05/18 00:57:32;;;;;;;6.63;3.60;;;;;;;;;;5071971;28;20025;-77
2023/05/18 01:00:01;;;;;;;6.32;3.85;;;;;;;;;;5068194;28;20035;-77
2023/05/18 01:02:29;;;;;;;5.78;3.50;;;;;;;;;;5076419;28;20128;-78
2023/05/18 01:04:55;;;;;;;6.15;3.58;;;;;;;;;;5067406;28;20081;-78
2023/05/18 01:07:25;;;;;;;6.75;3.75;;;;;;;;;;5058365;28;20553;-78
2023/05/18 01:09:54;;;;;;;7.80;4.13;;;;;;;;;;5066302;28;20021;-78
2023/05/18 01:12:33;;;;;;;4.82;3.28;;;;;;;;;;5065976;28;20027;-78
2023/05/18 01:15:03;;;;;;;6.88;4.03;;;;;;;;;;5068309;28;20020;-77
2023/05/18 01:17:59;;;;;;;5.80;3.25;;;;;;;;;;5071481;28;20024;-77
2023/05/18 01:20:38;;;;;;;6.97;3.40;;;;;;;;;;5066031;28;20070;-78
2023/05/18 01:23:11;;;;;;;5.25;3.58;;;;;;;;;;5065022;28;20456;-78
2023/05/18 01:25:48;;;;;;;6.20;3.65;;;;;;;;;;5067742;28;20028;-77
2023/05/18 01:28:16;;;;;;;4.82;3.38;;;;;;;;;;5062368;28;20025;-78
2023/05/18 01:30:43;;;;;;;7.13;3.85;;;;;;;;;;5073366;28;20047;-78
2023/05/18 01:33:12;;;;;;;7.47;3.70;;;;;;;;;;5064051;28;20095;-77
2023/05/18 01:35:40;;;;;;;6.53;3.25;;;;;;;;;;5073892;28;20027;-77
2023/05/18 01:38:07;;;;;;;6.05;3.08;;;;;;;;;;5070407;28;20081;-77
2023/05/18 01:40:37;;;;;;;4.93;3.33;;;;;;;;;;5061381;28;20486;-77
2023/05/18 01:43:10;;;;;;;6.90;3.72;;;;;;;;;;5062651;28;20036;-77
2023/05/18 01:45:36;;;;;;;6.00;3.53;;;;;;;;;;5067678;28;20141;-77
2023/05/18 01:48:03;;;;;;;6.68;3.63;;;;;;;;;;5065203;28;20032;-77
2023/05/18 01:50:36;;;;;;;4.82;3.08;;;;;;;;;;5061169;28;20025;-78
2023/05/18 01:53:08;;;;;;;5.72;3.72;;;;;;;;;;5062576;28;20086;-78
2023/05/18 01:55:36;;;;;;;7.20;4.00;;;;;;;;;;5062306;28;20058;-78
2023/05/18 01:58:04;;;;;;;6.90;3.60;;;;;;;;;;5065334;28;20077;-77
2023/05/18 02:00:30;;;;;;;7.30;3.60;;;;;;;;;;5066126;28;20035;-77
2023/05/18 02:02:57;;;;;;;8.43;3.83;;;;;;;;;;5063827;28;20032;-78
2023/05/18 02:05:23;;;;;;;6.05;3.53;;;;;;;;;;5065777;28;20071;-79
2023/05/18 02:07:49;;;;;;;7.05;3.75;;;;;;;;;;5071183;28;20027;-77
2023/05/18 02:10:15;;;;;;;6.38;3.75;;;;;;;;;;5061892;28;20417;-77
2023/05/18 02:12:41;;;;;;;4.65;3.30;;;;;;;;;;5064446;28;20043;-78
2023/05/18 02:15:07;;;;;;;5.03;3.45;;;;;;;;;;5068526;28;20025;-77
2023/05/18 02:17:37;;;;;;;5.43;3.58;;;;;;;;;;5062911;28;20036;-77
2023/05/18 02:20:07;;;;;;;8.63;4.22;;;;;;;;;;5064843;28;20482;-77
2023/05/18 02:22:34;;;;;;;4.43;3.30;;;;;;;;;;5080769;28;20036;-77
2023/05/18 02:25:00;;;;;;;5.68;3.60;;;;;;;;;;5072588;28;20087;-77
2023/05/18 02:27:27;;;;;;;6.03;3.47;;;;;;;;;;5074042;28;20387;-78
2023/05/18 02:29:54;;;;;;;5.57;3.78;;;;;;;;;;5069529;28;20051;-78
2023/05/18 02:32:22;;;;;;;5.78;3.50;;;;;;;;;;5067617;28;20453;-78
2023/05/18 02:34:53;;;;;;;7.20;3.90;;;;;;;;;;5068465;28;20028;-77
2023/05/18 02:37:21;;;;;;;5.55;3.40;;;;;;;;;;5068118;28;20043;-78
2023/05/18 02:39:48;;;;;;;12.25;3.92;;;;;;;;;;5071451;28;20020;-78
2023/05/18 02:42:15;;;;;;;6.18;3.70;;;;;;;;;;5072534;28;20035;-77
2023/05/18 02:44:41;;;;;;;6.75;3.20;;;;;;;;;;5073449;28;20081;-78
2023/05/18 02:47:07;;;;;;;6.32;3.40;;;;;;;;;;5063962;28;20078;-77
2023/05/18 02:49:33;;;;;;;5.03;3.90;;;;;;;;;;5067351;28;20028;-76
2023/05/18 02:52:00;;;;;;;7.10;3.85;;;;;;;;;;5059393;28;20146;-77
2023/05/18 02:54:26;;;;;;;5.68;3.35;;;;;;;;;;5063731;28;20033;-78
2023/05/18 02:56:55;;;;;;;10.05;4.35;;;;;;;;;;5062372;28;20020;-78
2023/05/18 02:59:22;;;;;;;9.18;3.80;;;;;;;;;;5058532;28;20025;-77
2023/05/18 03:01:48;;;;;;;5.40;3.65;;;;;;;;;;5066625;28;20067;-78
2023/05/18 03:04:15;;;;;;;8.43;3.83;;;;;;;;;;5058797;28;20263;-77
2023/05/18 03:06:45;;;;;;;5.45;3.50;;;;;;;;;;5069439;28;20024;-77
2023/05/18 03:09:11;;;;;;;6.45;3.60;;;;;;;;;;5060059;28;20667;-78
2023/05/18 03:11:37;;;;;;;6.25;3.72;;;;;;;;;;5072695;28;20035;-77
2023/05/18 03:14:03;;;;;;;8.38;3.45;;;;;;;;;;5066679;28;20110;-77
2023/05/18 03:16:29;;;;;;;4.55;3.40;;;;;;;;;;5065024;28;20390;-77
2023/05/18 03:19:01;;;;;;;7.05;3.67;;;;;;;;;;5066842;28;20052;-79
2023/05/18 03:21:32;;;;;;;7.43;4.50;;;;;;;;;;5069264;28;20054;-77
2023/05/18 03:23:58;;;;;;;4.78;3.17;;;;;;;;;;5069287;28;20793;-78
2023/05/18 03:26:25;;;;;;;7.95;3.83;;;;;;;;;;5056005;28;20540;-77
2023/05/18 03:28:51;;;;;;;5.32;3.65;;;;;;;;;;5064099;28;20032;-77
2023/05/18 03:31:17;;;;;;;6.00;3.35;;;;;;;;;;5066625;28;20213;-77
2023/05/18 03:33:43;;;;;;;5.40;3.40;;;;;;;;;;5067964;28;20029;-77
2023/05/18 03:36:11;;;;;;;7.72;3.72;;;;;;;;;;5065125;28;20039;-78
2023/05/18 03:38:38;;;;;;;7.78;3.60;;;;;;;;;;5068571;28;20024;-77
2023/05/18 03:41:07;;;;;;;6.75;3.63;;;;;;;;;;5068079;28;20032;-77
2023/05/18 03:43:34;;;;;;;6.70;3.60;;;;;;;;;;5067168;28;20032;-77
2023/05/18 03:46:00;;;;;;;5.78;3.17;;;;;;;;;;5070621;28;20545;-77
2023/05/18 03:48:27;;;;;;;7.18;3.15;;;;;;;;;;5065300;28;20082;-77
2023/05/18 03:50:53;;;;;;;4.75;3.22;;;;;;;;;;5066830;28;20024;-78
2023/05/18 03:53:20;;;;;;;6.85;3.47;;;;;;;;;;5065250;28;21002;-77
2023/05/18 03:55:48;;;;;;;7.93;4.10;;;;;;;;;;5065935;28;20025;-76
2023/05/18 03:58:14;;;;;;;6.78;4.03;;;;;;;;;;5060040;28;20390;-75
2023/05/18 04:00:41;;;;;;;5.53;3.40;;;;;;;;;;5064353;28;20036;-76
2023/05/18 04:03:11;;;;;;;5.22;3.53;;;;;;;;;;5058371;28;20039;-77
2023/05/18 04:05:37;;;;;;;7.22;3.50;;;;;;;;;;5056807;28;20513;-79
2023/05/18 04:08:04;;;;;;;5.70;3.78;;;;;;;;;;5061601;28;20037;-77
2023/05/18 04:10:30;;;;;;;5.28;3.45;;;;;;;;;;5065339;28;20025;-78
2023/05/18 04:12:56;;;;;;;7.85;3.85;;;;;;;;;;5069129;28;20025;-78
2023/05/18 04:15:23;;;;;;;6.18;3.97;;;;;;;;;;5063301;28;20031;-78
2023/05/18 04:17:50;;;;;;;6.35;3.80;;;;;;;;;;5064160;28;21640;-78
2023/05/18 04:20:17;;;;;;;5.95;3.83;;;;;;;;;;5061900;28;20041;-74
2023/05/18 04:22:47;;;;;;;6.13;4.00;;;;;;;;;;5064502;28;20047;-77
2023/05/18 04:25:14;;;;;;;6.43;3.90;;;;;;;;;;5062239;28;20024;-77
2023/05/18 04:27:41;;;;;;;6.70;3.67;;;;;;;;;;5065328;28;20025;-78
2023/05/18 04:30:09;;;;;;;7.75;4.47;;;;;;;;;;5066268;28;20028;-77
2023/05/18 04:32:35;;;;;;;7.32;4.05;;;;;;;;;;5062359;28;20027;-75
2023/05/18 04:35:11;;;;;;;7.32;3.95;;;;;;;;;;5059978;28;20028;-78
2023/05/18 04:37:40;;;;;;;;;;;;;;;;;;5067654;28;20016;-78
2023/05/18 04:40:07;;;;;;;5.25;3.50;;;;;;;;;;5062686;28;19938;-78
2023/05/18 04:42:34;;;;;;;8.20;3.88;;;;;;;;;;5067155;28;20024;-79
2023/05/18 04:45:00;;;;;;;7.43;4.43;;;;;;;;;;5060844;28;20028;-78
2023/05/18 04:47:28;;;;;;;7.20;3.85;;;;;;;;;;5060176;28;20290;-78
2023/05/18 04:49:55;;;;;;;6.50;3.88;;;;;;;;;;5059423;28;20023;-78
2023/05/18 04:52:21;;;;;;;6.93;4.10;;;;;;;;;;5063459;28;20031;-79
2023/05/18 04:54:47;;;;;;;4.90;3.35;;;;;;;;;;5065922;28;20427;-77
2023/05/18 04:57:13;;;;;;;5.88;3.53;;;;;;;;;;5066351;28;20035;-78
2023/05/18 04:59:41;;;;;;;7.38;4.18;;;;;;;;;;5059809;28;20024;-77
2023/05/18 05:02:07;;;;;;;5.10;3.88;;;;;;;;;;5067049;28;20447;-75
2023/05/18 05:04:33;;;;;;;5.22;3.70;;;;;;;;;;5060224;28;20051;-78
2023/05/18 05:06:59;;;;;;;5.70;3.97;;;;;;;;;;5069161;28;20052;-78
2023/05/18 05:09:25;;;;;;;6.45;3.53;;;;;;;;;;5065937;28;20418;-77
2023/05/18 05:11:51;;;;;;;5.60;3.40;;;;;;;;;;5063916;28;20062;-77
2023/05/18 05:14:18;;;;;;;6.85;4.22;;;;;;;;;;5060899;28;20051;-78
2023/05/18 05:16:44;;;;;;;6.70;3.55;;;;;;;;;;5060180;28;20759;-78
2023/05/18 05:19:10;;;;;;;9.57;3.70;;;;;;;;;;5064562;28;20124;-79
2023/05/18 05:21:36;;;;;;;7.38;3.63;;;;;;;;;;5065372;28;20028;-76
2023/05/18 05:24:03;;;;;;;6.25;3.70;;;;;;;;;;5056214;28;20064;-79
2023/05/18 05:26:29;;;;;;;8.40;3.55;;;;;;;;;;5063756;28;20029;-77
2023/05/18 05:28:56;;;;;;;7.65;3.40;;;;;;;;;;5066171;28;20479;-78
2023/05/18 05:31:22;;;;;;;9.48;3.58;;;;;;;;;;5061270;28;20097;-77
2023/05/18 05:33:48;;;;;;;10.90;4.20;;;;;;;;;;5061045;28;20043;-78
2023/05/18 05:36:14;;;;;;;9.82;4.15;;;;;;;;;;5065332;28;20496;-77
2023/05/18 05:38:41;;;;;;;4.47;3.30;;;;;;;;;;5061203;28;20119;-77
2023/05/18 05:41:07;;;;;;;5.25;3.40;;;;;;;;;;5058826;28;20035;-78
2023/05/18 05:43:33;;;;;;;5.45;4.10;;;;;;;;;;5060215;28;20028;-78
2023/05/18 05:45:59;;;;;;;6.95;4.00;;;;;;;;;;5062523;28;20939;-78
2023/05/18 05:48:26;;;;;;;7.68;3.70;;;;;;;;;;5060550;28;20032;-78
2023/05/18 05:50:52;;;;;;;5.07;4.07;;;;;;;;;;5074643;28;20596;-78
2023/05/18 05:53:19;;;;;;;8.65;4.53;;;;;;;;;;5063069;28;20051;-77
2023/05/18 05:55:45;;;;;;;5.35;3.65;;;;;;;;;;5061205;28;20020;-78
2023/05/18 05:58:11;;;;;;;5.95;3.63;;;;;;;;;;5059323;28;20029;-78
2023/05/18 06:00:37;;;;;;;5.88;4.00;;;;;;;;;;5062727;28;20036;-78
2023/05/18 06:03:03;;;;;;;6.45;3.35;;;;;;;;;;5062803;28;20032;-78
2023/05/18 06:05:30;;;;;;;5.05;3.38;;;;;;;;;;5059142;28;20395;-78
2023/05/18 06:07:56;;;;;;;6.50;3.72;;;;;;;;;;5057629;28;20123;-79
2023/05/18 06:10:23;;;;;;;8.43;4.15;;;;;;;;;;5060550;28;20349;-78
2023/05/18 06:12:49;;;;;;;10.20;4.63;;;;;;;;;;5058303;28;20460;-78
2023/05/18 06:15:15;;;;;;;6.82;3.55;;;;;;;;;;5058784;28;20379;-78
2023/05/18 06:17:42;;;;;;;9.60;4.15;;;;;;;;;;5057041;28;20062;-77
2023/05/18 06:20:09;;;;;;;7.28;3.65;;;;;;;;;;5078207;28;20025;-78
2023/05/18 06:22:35;;;;;;;8.27;3.90;;;;;;;;;;5063168;28;20036;-79
2023/05/18 06:25:02;;;;;;;6.28;4.15;;;;;;;;;;5064770;28;20056;-78
2023/05/18 06:27:28;;;;;;;6.85;4.13;;;;;;;;;;5062966;28;20040;-77
2023/05/18 06:29:54;;;;;;;8.55;3.80;;;;;;;;;;5063120;28;20021;-77
2023/05/18 06:32:20;;;;;;;5.20;3.38;;;;;;;;;;5052649;28;20056;-77
2023/05/18 06:34:46;;;;;;;6.07;4.40;;;;;;;;;;5055474;28;20036;-77
2023/05/18 06:37:12;;;;;;;8.38;5.30;;;;;;;;;;5061971;28;20028;-77
2023/05/18 06:39:39;;;;;;;6.20;4.03;;;;;;;;;;5049471;28;20040;-77
2023/05/18 06:42:05;;;;;;;8.93;4.32;;;;;;;;;;5055802;28;20422;-79
2023/05/18 06:44:31;;;;;;;9.60;4.05;;;;;;;;;;5060622;28;20021;-78
2023/05/18 06:46:57;;;;;;;7.10;3.60;;;;;;;;;;5062095;28;20024;-77
2023/05/18 06:49:24;;;;;;;9.75;3.53;;;;;;;;;;5064468;28;20063;-78
2023/05/18 06:51:50;;;;;;;7.00;3.58;;;;;;;;;;5061381;28;20112;-78
2023/05/18 06:54:16;;;;;;;6.95;3.40;;;;;;;;;;5058974;28;20031;-78
2023/05/18 06:56:42;;;;;;;8.63;3.75;;;;;;;;;;5061894;28;20541;-78
2023/05/18 06:59:08;;;;;;;6.15;4.13;;;;;;;;;;5063481;28;20032;-78
2023/05/18 07:01:38;;;;;;;4.97;3.95;;;;;;;;;;5062506;28;20056;-78
2023/05/18 07:04:04;;;;;;;7.60;3.53;;;;;;;;;;5058422;28;20028;-79
2023/05/18 07:06:30;;;;;;;6.30;3.45;;;;;;;;;;5062347;28;20025;-77
2023/05/18 07:08:57;;;;;;;7.43;3.65;;;;;;;;;;5056607;28;20055;-78
2023/05/18 07:11:23;;;;;;;6.22;3.25;;;;;;;;;;5060070;28;20029;-78
2023/05/18 07:13:49;;;;;;;6.20;3.33;;;;;;;;;;5065128;28;20032;-78
2023/05/18 07:16:15;;;;;;;7.47;3.92;;;;;;;;;;5060296;28;20038;-79
2023/05/18 07:18:42;;;;;;;8.70;4.32;;;;;;;;;;5054867;28;20028;-78
2023/05/18 07:21:08;;;;;;;9.13;4.60;;;;;;;;;;5061522;28;20077;-78
2023/05/18 07:23:35;;;;;;;7.57;3.92;;;;;;;;;;5061669;28;20068;-79
2023/05/18 07:26:01;;;;;;;8.27;3.97;;;;;;;;;;5062193;28;20086;-78
2023/05/18 07:28:27;;;;;;;4.03;2.92;;;;;;;;;;5059395;28;20037;-78
2023/05/18 07:30:53;;;;;;;5.20;3.25;;;;;;;;;;5054700;28;20031;-77
2023/05/18 07:33:20;;;;;;;5.88;3.30;;;;;;;;;;5053014;28;20104;-78
2023/05/18 07:35:46;;;;;;;7.43;4.13;;;;;;;;;;5063614;28;20032;-77
2023/05/18 07:38:12;;;;;;;5.85;3.15;;;;;;;;;;5057247;28;20097;-77
2023/05/18 07:40:38;;;;;;;4.82;3.20;;;;;;;;;;5058344;28;20368;-79
2023/05/18 07:43:04;;;;;;;7.88;3.30;;;;;;;;;;5064190;28;20058;-78
2023/05/18 07:45:31;;;;;;;3.88;3.30;;;;;;;;;;5068579;28;20033;-78
2023/05/18 07:47:57;;;;;;;6.00;2.97;;;;;;;;;;5067993;28;20033;-78
2023/05/18 07:50:23;;;;;;;4.43;3.20;;;;;;;;;;5065474;28;20448;-77
2023/05/18 07:52:49;;;;;;;7.10;3.20;;;;;;;;;;5064892;28;20486;-78
2023/05/18 07:55:16;;;;;;;6.07;2.83;;;;;;;;;;5065894;28;20402;-77
2023/05/18 07:57:42;;;;;;;5.88;3.38;;;;;;;;;;5062796;28;20036;-78
2023/05/18 08:00:09;;;;;;;6.30;3.28;;;;;;;;;;5066633;28;20039;-77
2023/05/18 08:02:35;;;;;;;5.53;3.45;;;;;;;;;;5070645;28;20055;-78
2023/05/18 08:05:01;;;;;;;4.68;3.40;;;;;;;;;;5062021;28;20028;-78
2023/05/18 08:07:28;;;;;;;5.47;3.10;;;;;;;;;;5063390;28;20028;-79
2023/05/18 08:09:55;;;;;;;8.43;3.70;;;;;;;;;;5063252;28;20024;-78
2023/05/18 08:12:22;;;;;;;6.10;3.58;;;;;;;;;;5063501;28;20028;-78
2023/05/18 08:14:48;;;;;;;6.50;3.53;;;;;;;;;;5062975;28;20024;-78
2023/05/18 08:17:14;;;;;;;5.22;2.70;;;;;;;;;;5062948;28;20069;-78
2023/05/18 08:19:40;;;;;;;7.13;3.17;;;;;;;;;;5064272;28;20035;-78
2023/05/18 08:22:06;;;;;;;8.02;3.67;;;;;;;;;;5067720;28;20474;-78
2023/05/18 08:24:32;;;;;;;8.82;2.70;;;;;;;;;;5057426;28;20364;-78
2023/05/18 08:26:59;;;;;;;5.82;3.28;;;;;;;;;;5062263;28;20109;-79
2023/05/18 08:29:25;;;;;;;7.18;3.65;;;;;;;;;;5077622;28;20040;-78
2023/05/18 08:31:51;;;;;;;5.95;3.25;;;;;;;;;;5063600;28;20482;-78
2023/05/18 08:34:17;;;;;;;6.47;2.72;;;;;;;;;;5067894;28;20171;-78
2023/05/18 08:36:44;;;;;;;4.90;2.75;;;;;;;;;;5064655;28;20028;-78
2023/05/18 08:39:10;;;;;;;6.68;2.75;;;;;;;;;;5062393;28;20029;-77
2023/05/18 08:41:57;;;;;;;7.95;2.72;;;;;;;;;;5068065;28;20412;-78
2023/05/18 08:44:29;;;;;;;4.03;2.45;;;;;;;;;;5060449;28;20029;-78
2023/05/18 08:46:55;;;;;;;5.07;2.60;;;;;;;;;;5068243;28;20059;-79
2023/05/18 08:49:23;;;;;;;4.95;2.72;;;;;;;;;;5078419;28;20035;-78
2023/05/18 08:51:55;;;;;;;3.72;2.55;;;;;;;;;;5063060;28;20020;-78
2023/05/18 08:54:22;;;;;;;4.93;2.72;;;;;;;;;;5062836;28;20023;-78
2023/05/18 08:56:48;;;;;;;5.78;3.03;;;;;;;;;;5063352;28;20025;-78
2023/05/18 08:59:16;;;;;;;4.90;3.08;;;;;;;;;;5066162;28;20021;-78
2023/05/18 09:01:42;;;;;;;7.80;2.85;;;;;;;;;;5066971;28;20036;-77
2023/05/18 09:04:09;;;;;;;5.13;3.05;;;;;;;;;;5062798;28;20508;-78
2023/05/18 09:06:35;;;;;;;5.55;2.65;;;;;;;;;;5068722;28;20429;-78
2023/05/18 09:09:03;;;;;;;4.53;2.50;;;;;;;;;;5066915;28;20075;-79
2023/05/18 09:11:30;;;;;;;3.95;2.40;;;;;;;;;;5068095;28;20404;-78
2023/05/18 09:13:56;;;;;;;5.93;3.17;;;;;;;;;;5066766;28;20140;-78
2023/05/18 09:16:23;;;;;;;3.42;2.78;;;;;;;;;;5056628;28;20031;-78
2023/05/18 09:18:49;;;;;;;4.82;2.50;;;;;;;;;;5056966;28;20060;-77
2023/05/18 09:21:15;;;;;;;4.63;2.55;;;;;;;;;;5061182;28;20025;-78
2023/05/18 09:23:41;;;;;;;5.65;2.63;;;;;;;;;;5064851;28;20133;-79
2023/05/18 09:26:12;;;;;;;6.18;2.70;;;;;;;;;;5064641;28;20036;-79
2023/05/18 09:28:39;;;;;;;5.65;2.25;;;;;;;;;;5062188;28;20028;-78
2023/05/18 09:31:26;;;;;;;4.68;2.35;;;;;;;;;;5066431;28;20020;-78
2023/05/18 09:33:52;;;;;;;3.72;2.22;;;;;;;;;;5066434;28;20050;-78
2023/05/18 09:36:23;;;;;;;3.08;2.47;;;;;;;;;;5061511;28;20032;-79
2023/05/18 09:38:51;;;;;;;4.00;2.83;;;;;;;;;;5075038;28;20125;-78
2023/05/18 09:41:18;;;;;;;4.88;2.67;;;;;;;;;;5066906;28;20086;-78
2023/05/18 09:43:45;;;;;;;5.30;2.47;;;;;;;;;;5067965;28;20497;-78
2023/05/18 09:46:11;;;;;;;3.80;2.33;;;;;;;;;;5055822;28;20033;-78
2023/05/18 09:48:41;;;;;;;5.57;2.53;;;;;;;;;;5068943;28;20024;-79
2023/05/18 09:51:09;;;;;;;5.38;2.55;;;;;;;;;;5048597;28;20025;-78
2023/05/18 09:53:38;;;;;;;4.20;2.40;;;;;;;;;;5064342;28;20027;-78
2023/05/18 09:56:08;;;;;;;4.07;2.50;;;;;;;;;;5064372;28;20513;-78
2023/05/18 09:58:35;;;;;;;7.07;2.53;;;;;;;;;;5061669;28;20020;-79
2023/05/18 10:01:02;;;;;;;4.38;2.38;;;;;;;;;;5070331;28;20042;-79
2023/05/18 10:03:32;;;;;;;3.53;2.30;;;;;;;;;;5064939;28;20028;-80
2023/05/18 10:06:04;;;;;;;5.30;3.60;;;;;;;;;;5068766;28;20032;-79
2023/05/18 10:08:30;;;;;;;4.15;2.63;;;;;;;;;;5062864;28;20055;-77
2023/05/18 10:10:56;;;;;;;4.10;2.70;;;;;;;;;;5054162;28;20033;-78
2023/05/18 10:13:25;;;;;;;2.65;2.20;;;;;;;;;;5059671;28;20021;-78
2023/05/18 10:16:17;;;;;;;7.60;4.05;;;;;;;;;;5067202;28;20490;-78
2023/05/18 10:18:44;;;;;;;2.67;2.35;;;;;;;;;;5058267;28;20048;-78
2023/05/18 10:21:13;;;;;;;4.05;2.50;;;;;;;;;;5062512;28;20129;-78
2023/05/18 10:23:40;;;;;;;5.65;2.50;;;;;;;;;;5068289;28;20051;-79
2023/05/18 10:26:08;;;;;;;5.07;3.90;;;;;;;;;;5067124;28;20170;-78
2023/05/18 10:28:38;;;;;;;6.45;2.65;;;;;;;;;;5068242;28;20028;-78
2023/05/18 10:31:05;;;;;;;3.97;2.80;;;;;;;;;;5064850;28;20107;-78
2023/05/18 10:33:31;;;;;;;5.15;2.90;;;;;;;;;;5063703;28;20033;-78
2023/05/18 10:35:58;;;;;;;5.75;2.97;;;;;;;;;;5068465;28;20025;-78
2023/05/18 10:38:25;;;;;;;5.57;2.75;;;;;;;;;;5063805;28;20032;-78
2023/05/18 10:40:53;;;;;;;6.38;3.28;;;;;;;;;;5063617;28;20099;-80
2023/05/18 10:43:22;;;;;;;4.32;3.13;;;;;;;;;;5066516;28;20059;-79
2023/05/18 10:45:52;;;;;;;3.67;2.65;;;;;;;;;;5063853;28;20119;-78
2023/05/18 10:48:22;;;;;;;3.75;2.92;;;;;;;;;;5062865;28;20029;-79
2023/05/18 10:50:49;;;;;;;6.20;2.90;;;;;;;;;;5068366;28;20439;-80
2023/05/18 10:53:16;;;;;;;3.45;2.72;;;;;;;;;;5062853;28;20054;-79
2023/05/18 10:55:43;;;;;;;6.25;4.03;;;;;;;;;;5058228;28;20104;-79
2023/05/18 10:58:13;;;;;;;4.68;2.72;;;;;;;;;;5069021;28;20032;-79
2023/05/18 11:00:40;;;;;;;4.95;2.90;;;;;;;;;;5068057;28;20028;-78
2023/05/18 11:03:13;;;;;;;3.78;2.50;;;;;;;;;;5069400;28;20040;-79
2023/05/18 11:05:40;;;;;;;4.00;2.80;;;;;;;;;;5063343;28;21457;-79
2023/05/18 11:08:06;;;;;;;3.45;2.50;;;;;;;;;;5065721;28;20071;-77
2023/05/18 11:10:39;;;;;;;5.30;3.30;;;;;;;;;;5067356;28;20466;-77
2023/05/18 11:13:06;;;;;;;3.85;2.80;;;;;;;;;;5063326;28;20273;-79
2023/05/18 11:15:50;;;;;;;5.00;3.22;;;;;;;;;;5065183;28;20394;-77
2023/05/18 11:18:17;;;;;;;6.03;3.60;;;;;;;;;;5064805;28;20147;-78
2023/05/18 11:20:45;;;;;;;4.35;3.40;;;;;;;;;;5062140;28;20028;-78
2023/05/18 11:23:17;;;;;;;5.47;3.22;;;;;;;;;;5072482;28;20122;-77
2023/05/18 11:25:43;;;;;;;4.40;3.15;;;;;;;;;;5054667;28;20026;-78
2023/05/18 11:28:12;;;;;;;5.78;2.78;;;;;;;;;;5062255;28;20402;-79
2023/05/18 11:30:41;;;;;;;3.83;2.55;;;;;;;;;;5062758;28;20529;-78
2023/05/18 11:33:10;;;;;;;6.25;2.88;;;;;;;;;;5072654;28;20036;-77
2023/05/18 11:35:55;;;;;;;5.38;2.88;;;;;;;;;;5061520;28;20424;-77
2023/05/18 11:38:21;;;;;;;4.30;2.92;;;;;;;;;;5062097;28;20158;-77
2023/05/18 11:40:48;;;;;;;4.15;2.63;;;;;;;;;;5061730;28;20496;-77
2023/05/18 11:43:21;;;;;;;4.85;3.10;;;;;;;;;;5064921;28;20416;-77
2023/05/18 11:45:53;;;;;;;4.93;3.03;;;;;;;;;;5062378;28;20040;-78
2023/05/18 11:48:26;;;;;;;3.85;2.42;;;;;;;;;;5062050;28;20039;-79
2023/05/18 11:50:55;;;;;;;5.93;2.83;;;;;;;;;;5052944;28;20108;-77
2023/05/18 11:53:23;;;;;;;4.53;2.70;;;;;;;;;;5055006;28;20471;-78
2023/05/18 11:55:51;;;;;;;3.65;3.03;;;;;;;;;;5060766;28;20132;-77
2023/05/18 11:58:19;;;;;;;3.72;2.55;;;;;;;;;;5058218;28;20097;-77
2023/05/18 12:00:46;;;;;;;5.90;2.60;;;;;;;;;;5057946;28;20588;-78
2023/05/18 12:03:13;;;;;;;5.38;3.30;;;;;;;;;;5062619;28;20461;-78
2023/05/18 12:05:40;;;;;;;4.95;2.92;;;;;;;;;;5063243;28;20683;-78
2023/05/18 12:08:08;;;;;;;3.55;2.70;;;;;;;;;;5063766;28;20615;-77
2023/05/18 12:10:38;;;;;;;4.28;2.90;;;;;;;;;;5063154;28;20017;-78
2023/05/18 12:13:05;;;;;;;6.68;2.75;;;;;;;;;;5058939;28;20025;-78
2023/05/18 12:15:31;;;;;;;4.22;2.53;;;;;;;;;;5061724;28;20059;-78
2023/05/18 12:17:58;;;;;;;6.10;2.88;;;;;;;;;;5060078;28;20397;-77
2023/05/18 12:20:25;;;;;;;4.07;2.70;;;;;;;;;;5060240;28;20063;-77
2023/05/18 12:22:52;;;;;;;3.72;2.55;;;;;;;;;;5065550;28;20083;-78
2023/05/18 12:25:22;;;;;;;5.85;2.83;;;;;;;;;;5063235;28;20201;-78
2023/05/18 12:27:49;;;;;;;2.85;2.40;;;;;;;;;;5063102;28;20054;-79
2023/05/18 12:30:15;;;;;;;4.53;2.53;;;;;;;;;;5069088;28;20020;-78
2023/05/18 12:32:45;;;;;;;5.90;2.83;;;;;;;;;;5062813;28;20021;-79
2023/05/18 12:35:11;;;;;;;5.07;2.65;;;;;;;;;;5062759;28;20017;-79
2023/05/18 12:37:44;;;;;;;4.40;3.25;;;;;;;;;;5065755;28;20120;-78
2023/05/18 12:40:12;;;;;;;3.92;2.53;;;;;;;;;;5065509;28;20111;-78
2023/05/18 12:42:38;;;;;;;5.35;2.55;;;;;;;;;;5062019;28;20159;-79
2023/05/18 12:45:04;;;;;;;9.23;3.30;;;;;;;;;;5069490;28;20054;-78
2023/05/18 12:47:32;;;;;;;4.88;2.60;;;;;;;;;;5066615;28;20036;-79
2023/05/18 12:50:01;;;;;;;5.68;3.00;;;;;;;;;;5066232;28;20109;-79
2023/05/18 12:52:28;;;;;;;4.30;2.92;;;;;;;;;;5075130;28;20394;-78
2023/05/18 12:54:57;;;;;;;6.82;2.85;;;;;;;;;;5069602;28;20055;-78
2023/05/18 12:57:25;;;;;;;3.28;2.78;;;;;;;;;;5066064;28;20035;-80
2023/05/18 12:59:55;;;;;;;3.92;2.92;;;;;;;;;;5062135;28;20021;-79
2023/05/18 13:02:32;;;;;;;3.55;2.67;;;;;;;;;;5068887;28;20031;-79
2023/05/18 13:05:16;;;;;;;5.97;2.97;;;;;;;;;;5067729;28;20028;-75
2023/05/18 13:07:42;;;;;;;5.47;3.13;;;;;;;;;;5065699;28;20036;-74
2023/05/18 13:10:12;;;;;;;4.60;3.45;;;;;;;;;;5068462;28;20554;-74
2023/05/18 13:12:43;;;;;;;5.90;3.00;;;;;;;;;;5063862;28;20032;-80
2023/05/18 13:15:24;;;;;;;4.80;3.30;;;;;;;;;;5063681;28;20455;-77
2023/05/18 13:18:01;;;;;;;4.80;2.75;;;;;;;;;;5060417;28;20028;-77
2023/05/18 13:20:50;;;;;;;5.60;2.97;;;;;;;;;;5051481;28;20024;-77
2023/05/18 13:23:17;;;;;;;5.22;2.60;;;;;;;;;;5064271;28;20044;-77
2023/05/18 13:25:44;;;;;;;5.05;2.65;;;;;;;;;;5060678;28;20975;-77
2023/05/18 13:28:11;;;;;;;4.57;3.58;;;;;;;;;;5058057;28;20047;-75
2023/05/18 13:30:38;;;;;;;4.60;2.70;;;;;;;;;;5058103;28;20016;-75
2023/05/18 13:33:06;;;;;;;5.00;3.08;;;;;;;;;;5063296;28;21157;-75
2023/05/18 13:35:33;;;;;;;3.80;2.60;;;;;;;;;;5068737;28;20032;-75
2023/05/18 13:37:59;;;;;;;2.97;2.45;;;;;;;;;;5064102;28;20032;-75
2023/05/18 13:40:25;;;;;;;6.25;3.35;;;;;;;;;;5068407;28;20108;-75
2023/05/18 13:42:51;;;;;;;7.10;2.85;;;;;;;;;;5064911;28;20035;-75
2023/05/18 13:45:20;;;;;;;4.30;2.72;;;;;;;;;;5061956;28;20036;-75
2023/05/18 13:47:49;;;;;;;6.32;3.05;;;;;;;;;;5060457;28;20029;-76
2023/05/18 13:50:16;;;;;;;5.57;2.78;;;;;;;;;;5058601;28;20067;-76
2023/05/18 13:52:42;;;;;;;5.50;2.72;;;;;;;;;;5064988;28;20020;-75
2023/05/18 13:55:08;;;;;;;4.13;2.58;;;;;;;;;;5062184;28;20039;-76
2023/05/18 13:57:34;;;;;;;3.50;2.67;;;;;;;;;;5062233;28;20035;-76
2023/05/18 14:00:11;;;;;;;3.75;2.75;;;;;;;;;;5063433;28;20376;-76
2023/05/18 14:02:37;;;;;;;5.40;3.38;;;;;;;;;;5059369;28;20122;-75
2023/05/18 14:05:04;;;;;;;4.53;2.72;;;;;;;;;;5068552;28;20100;-75
2023/05/18 14:07:30;;;;;;;4.75;2.67;;;;;;;;;;5053732;28;20024;-77
2023/05/18 14:09:56;;;;;;;5.95;2.78;;;;;;;;;;5064688;28;20032;-76
2023/05/18 14:12:22;;;;;;;6.00;3.15;;;;;;;;;;5059180;28;20408;-76
2023/05/18 14:14:48;;;;;;;4.88;3.00;;;;;;;;;;5062598;28;20039;-75
2023/05/18 14:17:14;;;;;;;3.35;2.80;;;;;;;;;;5062616;28;20038;-76
2023/05/18 14:19:40;;;;;;;6.28;3.33;;;;;;;;;;5059980;28;20083;-76
2023/05/18 14:22:07;;;;;;;6.10;3.00;;;;;;;;;;5074409;28;20124;-77
2023/05/18 14:24:33;;;;;;;4.85;2.90;;;;;;;;;;5054389;28;20924;-75
2023/05/18 14:26:59;;;;;;;4.68;3.22;;;;;;;;;;5061116;28;20147;-76
2023/05/18 14:29:26;;;;;;;3.83;3.00;;;;;;;;;;5066408;28;20138;-75
2023/05/18 14:31:52;;;;;;;3.47;2.83;;;;;;;;;;5065517;28;20477;-76
2023/05/18 14:34:18;;;;;;;5.82;3.10;;;;;;;;;;5059427;28;20037;-76
2023/05/18 14:36:45;;;;;;;8.77;3.20;;;;;;;;;;5063918;28;20020;-76
2023/05/18 14:39:11;;;;;;;3.70;3.15;;;;;;;;;;5064995;28;20017;-75
2023/05/18 14:41:37;;;;;;;4.70;3.20;;;;;;;;;;5063174;28;20029;-77
2023/05/18 14:44:03;;;;;;;6.28;3.35;;;;;;;;;;5064378;28;20121;-76
2023/05/18 14:46:30;;;;;;;4.00;3.00;;;;;;;;;;5063120;28;20528;-75